createdAt,value
2019-04-29T00:04:30.666Z,9.80
2019-04-29T00:09:36.891Z,7.20
2019-04-29T00:14:44.536Z,12.17
2019-04-29T00:20:27.728Z,8.87
2019-04-29T00:25:34.025Z,16.43
2019-04-29T00:30:40.179Z,10.23
2019-04-29T00:35:46.201Z,10.90
2019-04-29T00:41:11.104Z,9.20
2019-04-29T00:46:17.271Z,11.13
2019-04-29T00:51:23.373Z,16.47
2019-04-29T00:56:29.600Z,11.33
2019-04-29T01:01:35.583Z,11.40
2019-04-29T01:06:41.773Z,11.80
2019-04-29T01:11:47.843Z,15.93
2019-04-29T01:16:53.926Z,14.70
2019-04-29T01:22:00.013Z,9.57
2019-04-29T01:27:20.398Z,9.07
2019-04-29T01:32:26.677Z,11.63
2019-04-29T01:37:43.389Z,12.50
2019-04-29T01:42:49.478Z,9.00
2019-04-29T01:47:55.446Z,7.77
2019-04-29T01:53:01.456Z,12.80
2019-04-29T01:58:07.309Z,12.03
2019-04-29T02:03:13.361Z,8.60
2019-04-29T02:08:19.163Z,10.57
2019-04-29T02:13:24.872Z,12.63
2019-04-29T02:18:30.872Z,10.60
2019-04-29T02:23:41.771Z,11.33
2019-04-29T02:28:47.771Z,9.40
2019-04-29T02:33:53.722Z,10.23
2019-04-29T02:39:34.088Z,14.67
2019-04-29T02:44:40.062Z,12.77
2019-04-29T02:49:46.160Z,19.10
2019-04-29T02:54:54.250Z,16.03
2019-04-29T03:00:10.952Z,13.50
2019-04-29T03:05:20.074Z,11.40
2019-04-29T03:10:25.926Z,10.83
2019-04-29T03:15:34.856Z,9.37
2019-04-29T03:20:50.112Z,9.37
2019-04-29T03:25:55.804Z,12.60
2019-04-29T03:31:01.791Z,12.30
2019-04-29T03:36:07.749Z,9.60
2019-04-29T03:41:13.738Z,12.23
2019-04-29T03:46:19.617Z,11.57
2019-04-29T03:51:25.518Z,11.63
2019-04-29T03:56:31.562Z,10.70
2019-04-29T04:01:49.679Z,12.67
2019-04-29T04:07:15.118Z,15.93
2019-04-29T04:12:21.052Z,14.77
2019-04-29T04:17:35.862Z,17.30
2019-04-29T04:22:48.773Z,16.03
2019-04-29T04:27:54.823Z,15.30
2019-04-29T04:33:00.597Z,14.27
2019-04-29T04:38:06.574Z,10.00
2019-04-29T04:43:12.528Z,13.30
2019-04-29T04:48:44.841Z,14.00
2019-04-29T04:53:50.791Z,13.63
2019-04-29T04:58:56.873Z,12.93
2019-04-29T05:04:02.792Z,14.17
2019-04-29T05:09:09.066Z,18.90
2019-04-29T05:14:15.021Z,14.58
2019-04-29T05:19:20.910Z,28.05
2019-04-29T05:24:26.953Z,29.27
2019-04-29T05:29:32.952Z,28.83
2019-04-29T05:34:41.912Z,28.90
2019-04-29T05:39:48.257Z,26.90
2019-04-29T05:45:06.992Z,29.23
2019-04-29T05:50:30.436Z,29.70
2019-04-29T05:55:36.419Z,28.77
2019-04-29T06:00:46.199Z,34.47
2019-04-29T06:05:52.242Z,30.20
2019-04-29T06:10:58.114Z,31.03
2019-04-29T06:16:04.208Z,31.10
2019-04-29T06:21:10.156Z,28.47
2019-04-29T06:26:15.935Z,27.37
2019-04-29T06:31:21.810Z,29.23
2019-04-29T06:36:27.771Z,35.23
2019-04-29T06:41:33.849Z,34.93
2019-04-29T06:46:39.965Z,35.57
2019-04-29T06:51:45.917Z,38.67
2019-04-29T06:56:51.935Z,28.00
2019-04-29T07:01:58.181Z,37.13
2019-04-29T07:07:04.935Z,34.73
2019-04-29T07:12:12.550Z,34.97
2019-04-29T07:17:18.447Z,29.90
2019-04-29T07:22:25.856Z,29.73
2019-04-29T07:27:34.851Z,35.43
2019-04-29T07:32:42.274Z,36.77
2019-04-29T07:37:47.657Z,27.80
2019-04-29T07:42:53.717Z,29.50
2019-04-29T07:48:01.767Z,32.83
2019-04-29T07:53:07.748Z,35.73
2019-04-29T07:58:13.655Z,30.03
2019-04-29T08:03:19.798Z,31.33
2019-04-29T08:08:26.601Z,33.63
2019-04-29T08:13:33.128Z,33.57
2019-04-29T08:18:39.264Z,38.53
2019-04-29T08:23:45.292Z,38.20
2019-04-29T08:28:53.036Z,30.20
2019-04-29T08:33:58.873Z,27.93
2019-04-29T08:39:08.855Z,26.83
2019-04-29T08:44:22.965Z,26.83
2019-04-29T08:49:30.562Z,36.60
2019-04-29T08:54:37.543Z,31.30
2019-04-29T08:59:43.628Z,28.27
2019-04-29T09:04:53.834Z,23.07
2019-04-29T09:10:01.660Z,20.10
2019-04-29T09:15:05.218Z,31.63
2019-04-29T09:20:12.198Z,20.87
2019-04-29T09:26:01.995Z,26.83
2019-04-29T09:30:56.727Z,17.53
2019-04-29T09:36:03.140Z,15.53
2019-04-29T09:41:25.301Z,15.80
2019-04-29T09:46:34.595Z,15.87
2019-04-29T09:51:41.990Z,18.70
2019-04-29T09:56:47.943Z,16.27
2019-04-29T10:02:26.339Z,17.03
2019-04-29T10:07:32.847Z,16.50
2019-04-29T10:12:39.439Z,17.37
2019-04-29T10:17:56.020Z,16.27
2019-04-29T10:23:02.334Z,21.43
2019-04-29T10:28:08.444Z,16.60
2019-04-29T10:33:17.690Z,16.10
2019-04-29T10:38:22.723Z,19.30
2019-04-29T10:44:06.116Z,19.37
2019-04-29T10:49:21.738Z,19.83
2019-04-29T10:54:29.850Z,19.30
2019-04-29T10:59:40.702Z,14.77
2019-04-29T11:04:46.886Z,14.07
2019-04-29T11:09:57.691Z,20.63
2019-04-29T11:15:05.378Z,13.97
2019-04-29T11:20:16.054Z,14.80
2019-04-29T11:25:42.417Z,14.47
2019-04-29T11:30:49.720Z,16.62
2019-04-29T11:36:03.999Z,14.90
2019-04-29T11:41:12.279Z,25.00
2019-04-29T11:46:21.009Z,18.12
2019-04-29T11:51:49.355Z,15.43
2019-04-29T11:56:42.337Z,11.03
2019-04-29T12:02:12.071Z,15.60
2019-04-29T12:07:21.048Z,13.32
2019-04-29T12:12:26.033Z,10.90
2019-04-29T12:17:36.631Z,15.25
2019-04-29T12:22:48.577Z,17.67
2019-04-29T12:28:01.183Z,13.70
2019-04-29T12:33:05.301Z,19.10
2019-04-29T12:38:39.738Z,15.00
2019-04-29T12:43:59.869Z,11.83
2019-04-29T12:49:08.593Z,6.28
2019-04-29T12:54:13.842Z,10.23
2019-04-29T12:59:20.905Z,9.50
2019-04-29T13:04:54.521Z,7.65
2019-04-29T13:10:07.031Z,9.85
2019-04-29T13:15:33.360Z,8.48
2019-04-29T13:20:41.541Z,7.50
2019-04-29T13:25:51.081Z,11.43
2019-04-29T13:30:56.781Z,10.00
2019-04-29T13:36:02.554Z,8.73
2019-04-29T13:41:13.516Z,10.78
2019-04-29T13:46:51.086Z,12.47
2019-04-29T13:51:55.115Z,10.35
2019-04-29T13:57:07.737Z,9.63
2019-04-29T14:02:32.257Z,11.30
2019-04-29T14:07:35.529Z,14.18
2019-04-29T14:12:48.562Z,6.72
2019-04-29T14:17:49.210Z,8.00
2019-04-29T14:22:58.481Z,11.10
2019-04-29T14:28:04.888Z,8.08
2019-04-29T14:33:11.856Z,9.20
2019-04-29T14:38:17.921Z,10.32
2019-04-29T14:43:56.975Z,10.95
2019-04-29T14:49:09.400Z,10.25
2019-04-29T14:54:15.483Z,10.80
2019-04-29T14:59:21.778Z,8.40
2019-04-29T15:04:31.360Z,6.00
2019-04-29T15:09:46.883Z,6.28
2019-04-29T15:15:06.076Z,7.90
2019-04-29T15:20:37.332Z,5.20
2019-04-29T15:25:43.361Z,13.03
2019-04-29T15:30:49.409Z,8.80
2019-04-29T15:35:59.789Z,7.58
2019-04-29T15:41:05.449Z,7.55
2019-04-29T15:46:11.373Z,10.78
2019-04-29T15:51:18.338Z,8.33
2019-04-29T15:56:28.970Z,13.58
2019-04-29T16:01:32.305Z,10.03
2019-04-29T16:07:00.666Z,7.53
2019-04-29T16:17:22.316Z,16.90
2019-04-29T16:22:28.448Z,8.58
2019-04-29T16:27:34.509Z,8.75
2019-04-29T16:32:41.245Z,15.88
2019-04-29T16:37:47.418Z,9.73
2019-04-29T16:43:02.197Z,12.37
2019-04-29T16:48:08.393Z,10.85
2019-04-29T16:53:14.651Z,11.90
2019-04-29T16:58:20.909Z,8.50
2019-04-29T17:03:27.132Z,12.07
2019-04-29T17:09:03.060Z,10.20
2019-04-29T17:14:03.254Z,10.38
2019-04-29T17:19:09.593Z,8.75
2019-04-29T17:24:15.703Z,8.33
2019-04-29T17:29:55.378Z,7.20
2019-04-29T17:35:01.240Z,10.18
2019-04-29T17:35:17.817Z,12.47
2019-04-29T17:40:09.082Z,11.80
2019-04-29T17:45:26.971Z,15.58
2019-04-29T17:50:33.238Z,13.18
2019-04-29T17:55:45.317Z,13.13
2019-04-29T18:01:10.514Z,8.60
2019-04-29T18:06:59.012Z,11.57
2019-04-29T18:12:11.178Z,11.65
2019-04-29T18:17:27.104Z,14.05
2019-04-29T18:22:44.674Z,13.80
2019-04-29T18:27:53.524Z,16.77
2019-04-29T18:32:58.415Z,17.62
2019-04-29T18:38:07.441Z,26.57
2019-04-29T18:43:12.302Z,21.10
2019-04-29T18:48:21.473Z,16.12
2019-04-29T18:53:26.397Z,15.65
2019-04-29T18:58:32.619Z,14.18
2019-04-29T19:03:55.732Z,14.60
2019-04-29T19:09:02.786Z,16.42
2019-04-29T19:14:09.949Z,15.48
2019-04-29T19:19:18.739Z,18.70
2019-04-29T19:24:23.806Z,17.07
2019-04-29T19:29:30.173Z,16.17
2019-04-29T19:34:42.895Z,11.25
2019-04-29T19:39:44.963Z,13.72
2019-04-29T19:44:51.311Z,16.03
2019-04-29T19:49:57.440Z,13.50
2019-04-29T19:55:03.666Z,10.55
2019-04-29T20:00:10.569Z,12.25
2019-04-29T20:05:23.815Z,18.70
2019-04-29T20:10:31.038Z,17.70
2019-04-29T20:15:45.933Z,19.23
2019-04-29T20:21:08.941Z,20.50
2019-04-29T20:26:16.929Z,22.30
2019-04-29T20:31:22.402Z,18.60
2019-04-29T20:36:38.542Z,23.13
2019-04-29T20:41:40.700Z,21.30
2019-04-29T20:47:06.785Z,19.35
2019-04-29T20:51:55.811Z,27.42
2019-04-29T20:57:05.482Z,30.60
2019-04-29T21:02:12.703Z,27.40
2019-04-29T21:07:23.852Z,29.50
2019-04-29T21:12:50.006Z,30.30
2019-04-29T21:17:58.625Z,29.98
2019-04-29T21:23:04.187Z,36.70
2019-04-29T21:28:10.242Z,33.77
2019-04-29T21:33:20.998Z,40.45
2019-04-29T21:38:35.718Z,34.05
2019-04-29T21:43:42.427Z,41.55
2019-04-29T21:48:48.599Z,35.98
2019-04-29T21:53:56.003Z,35.03
2019-04-29T21:59:02.587Z,37.93
2019-04-29T22:04:09.806Z,42.78
2019-04-29T22:09:16.484Z,42.90
2019-04-29T22:14:22.842Z,46.13
2019-04-29T22:19:29.174Z,47.90
2019-04-29T22:24:35.692Z,44.00
2019-04-29T22:29:42.861Z,49.77
2019-04-29T22:34:49.617Z,40.80
2019-04-29T22:39:58.638Z,41.35
2019-04-29T22:45:05.671Z,41.35
2019-04-29T22:50:12.144Z,40.63
2019-04-29T22:55:18.155Z,43.33
2019-04-29T23:00:32.760Z,41.77
2019-04-29T23:05:35.674Z,47.97
2019-04-29T23:10:41.774Z,44.27
2019-04-29T23:15:47.670Z,48.63
2019-04-29T23:21:11.147Z,50.77
2019-04-29T23:26:17.201Z,48.37
2019-04-29T23:31:27.205Z,51.20
2019-04-29T23:36:31.208Z,51.80
2019-04-29T23:41:37.183Z,46.83
2019-04-29T23:46:43.035Z,45.10
2019-04-29T23:51:48.961Z,51.20
2019-04-29T23:57:29.006Z,49.83
